createdAt,value
2018-03-11T00:07:45.793Z,10
2018-03-11T00:17:45.793Z,10
2018-03-11T00:27:45.755Z,10
2018-03-11T00:37:45.866Z,12
2018-03-11T00:47:45.831Z,10
2018-03-11T00:57:45.902Z,11
2018-03-11T01:07:45.856Z,10
2018-03-11T01:17:45.819Z,11
2018-03-11T01:27:45.793Z,12
2018-03-11T01:37:45.825Z,12
2018-03-11T01:47:45.823Z,13
2018-03-11T01:57:45.732Z,13
2018-03-11T02:07:45.851Z,16
2018-03-11T02:17:45.864Z,14
2018-03-11T02:27:45.762Z,16
2018-03-11T02:37:45.829Z,13
2018-03-11T02:47:45.790Z,15
2018-03-11T02:57:45.844Z,15
2018-03-11T03:07:45.790Z,16
2018-03-11T03:17:45.738Z,15
2018-03-11T03:27:45.798Z,15
2018-03-11T03:37:45.739Z,20
2018-03-11T03:47:45.881Z,18
2018-03-11T03:57:45.792Z,17
2018-03-11T04:07:45.774Z,22
2018-03-11T04:17:45.903Z,23
2018-03-11T04:27:45.823Z,28
2018-03-11T04:37:45.740Z,20
2018-03-11T04:47:45.777Z,19
2018-03-11T04:57:45.752Z,16
2018-03-11T05:07:45.702Z,19
2018-03-11T05:17:45.823Z,19
2018-03-11T05:27:45.763Z,20
2018-03-11T05:37:45.821Z,25
2018-03-11T05:47:49.029Z,26
2018-03-11T05:57:45.822Z,22
2018-03-11T06:07:45.862Z,23
2018-03-11T06:17:45.773Z,26
2018-03-11T06:27:52.401Z,27
2018-03-11T06:37:45.894Z,26
2018-03-11T06:47:48.981Z,19
2018-03-11T06:57:48.864Z,15
2018-03-11T07:07:45.828Z,16
2018-03-11T07:17:45.753Z,15
2018-03-11T07:27:49.188Z,11
2018-03-11T07:37:47.560Z,11
2018-03-11T07:47:45.830Z,11
2018-03-11T07:57:45.730Z,10
2018-03-11T08:07:45.769Z,10
2018-03-11T08:17:45.823Z,10
2018-03-11T08:27:45.700Z,10
2018-03-11T08:37:54.717Z,11
2018-03-11T08:47:45.813Z,12
2018-03-11T08:57:45.750Z,11
2018-03-11T09:07:51.980Z,13
2018-03-11T09:17:53.117Z,11
2018-03-11T09:27:49.435Z,12
2018-03-11T09:37:45.835Z,13
2018-03-11T09:47:45.749Z,12
2018-03-11T09:57:48.854Z,11
2018-03-11T10:07:49.725Z,9
2018-03-11T10:17:49.311Z,10
2018-03-11T10:27:45.805Z,9
2018-03-11T10:37:45.985Z,9
2018-03-11T10:47:45.731Z,8
2018-03-11T10:57:45.793Z,6
2018-03-11T11:07:45.760Z,8
2018-03-11T11:17:45.840Z,5
2018-03-11T11:27:45.833Z,5
2018-03-11T11:37:49.614Z,4
2018-03-11T11:47:45.866Z,3
2018-03-11T11:57:45.834Z,3
2018-03-11T12:07:45.798Z,2
2018-03-11T12:17:48.960Z,4
2018-03-11T12:27:52.762Z,3
2018-03-11T12:37:55.976Z,2
2018-03-11T12:47:45.812Z,3
2018-03-11T12:57:49.413Z,2
2018-03-11T13:07:45.804Z,2
2018-03-11T13:17:49.138Z,3
2018-03-11T13:27:45.808Z,3
2018-03-11T13:37:52.167Z,4
2018-03-11T13:47:49.700Z,3
2018-03-11T13:57:45.820Z,2
2018-03-11T14:07:45.755Z,3
2018-03-11T14:17:45.747Z,3
2018-03-11T14:27:51.863Z,3
2018-03-11T14:37:45.838Z,3
2018-03-11T14:47:49.488Z,5
2018-03-11T14:57:48.909Z,2
2018-03-11T15:07:52.184Z,2
2018-03-11T15:17:45.792Z,2
2018-03-11T15:27:45.840Z,2
2018-03-11T15:37:45.932Z,2
2018-03-11T15:47:45.778Z,4
2018-03-11T15:57:45.836Z,4
2018-03-11T16:07:45.749Z,3
2018-03-11T16:17:45.774Z,3
2018-03-11T16:27:52.307Z,3
2018-03-11T16:37:45.890Z,3
2018-03-11T16:47:45.863Z,4
2018-03-11T16:57:45.837Z,4
2018-03-11T17:07:49.056Z,4
2018-03-11T17:17:45.895Z,5
2018-03-11T17:27:45.870Z,5
2018-03-11T17:37:45.858Z,4
2018-03-11T17:47:45.866Z,5
2018-03-11T17:57:53.042Z,5
2018-03-11T18:07:49.146Z,5
2018-03-11T18:17:56.140Z,6
2018-03-11T18:27:46.034Z,6
2018-03-11T18:37:45.920Z,7
2018-03-11T18:47:45.757Z,9
2018-03-11T18:57:45.801Z,9
2018-03-11T19:07:45.886Z,9
2018-03-11T19:17:52.465Z,7
2018-03-11T19:27:51.992Z,10
2018-03-11T19:37:49.278Z,10
2018-03-11T19:47:45.775Z,9
2018-03-11T19:57:45.832Z,8
2018-03-11T20:07:49.547Z,8
2018-03-11T20:17:45.797Z,10
2018-03-11T20:27:45.731Z,10
2018-03-11T20:37:45.816Z,9
2018-03-11T20:47:45.842Z,11
2018-03-11T20:57:49.679Z,11
2018-03-11T21:07:49.621Z,12
2018-03-11T21:17:49.047Z,11
2018-03-11T21:27:45.779Z,13
2018-03-11T21:37:49.504Z,11
2018-03-11T21:57:49.842Z,11
2018-03-11T22:07:50.645Z,11
2018-03-11T22:17:49.514Z,10
2018-03-11T22:27:45.772Z,12
2018-03-11T22:47:45.757Z,13
2018-03-11T22:57:53.490Z,15
2018-03-11T23:07:45.808Z,15
2018-03-11T23:17:49.138Z,15
2018-03-11T23:27:45.840Z,16
2018-03-11T23:37:45.868Z,17
2018-03-11T23:57:52.134Z,17
